sensor_id;sensor_type;location;lat;lon;timestamp;P1;durP1;ratioP1;P2;durP2;ratioP2
48215;SDS011;34005;48.844;10.098;2022-12-07T00:01:56;9.15;;;7.97;;
48215;SDS011;34005;48.844;10.098;2022-12-07T00:04:24;9.13;;;8.07;;
48215;SDS011;34005;48.844;10.098;2022-12-07T00:06:53;8.73;;;7.78;;
48215;SDS011;34005;48.844;10.098;2022-12-07T00:09:21;12.10;;;8.80;;
48215;SDS011;34005;48.844;10.098;2022-12-07T00:11:52;10.93;;;8.17;;
48215;SDS011;34005;48.844;10.098;2022-12-07T00:14:21;8.73;;;7.38;;
48215;SDS011;34005;48.844;10.098;2022-12-07T00:16:52;10.02;;;8.45;;
48215;SDS011;34005;48.844;10.098;2022-12-07T00:19:23;12.55;;;9.05;;
48215;SDS011;34005;48.844;10.098;2022-12-07T00:21:51;9.55;;;7.80;;
48215;SDS011;34005;48.844;10.098;2022-12-07T00:24:19;9.73;;;8.50;;
48215;SDS011;34005;48.844;10.098;2022-12-07T00:26:47;10.48;;;8.82;;
48215;SDS011;34005;48.844;10.098;2022-12-07T00:29:15;10.35;;;8.07;;
48215;SDS011;34005;48.844;10.098;2022-12-07T00:31:44;8.82;;;7.35;;
48215;SDS011;34005;48.844;10.098;2022-12-07T00:34:14;9.40;;;8.27;;
48215;SDS011;34005;48.844;10.098;2022-12-07T00:36:42;11.25;;;8.40;;
48215;SDS011;34005;48.844;10.098;2022-12-07T00:39:10;9.32;;;7.30;;
48215;SDS011;34005;48.844;10.098;2022-12-07T00:41:37;13.07;;;8.38;;
48215;SDS011;34005;48.844;10.098;2022-12-07T00:44:05;11.57;;;8.27;;
48215;SDS011;34005;48.844;10.098;2022-12-07T00:46:32;9.32;;;8.10;;
48215;SDS011;34005;48.844;10.098;2022-12-07T00:49:00;10.50;;;8.75;;
48215;SDS011;34005;48.844;10.098;2022-12-07T00:51:29;9.88;;;8.48;;
48215;SDS011;34005;48.844;10.098;2022-12-07T00:53:57;10.85;;;8.00;;
48215;SDS011;34005;48.844;10.098;2022-12-07T00:56:25;9.73;;;7.95;;
48215;SDS011;34005;48.844;10.098;2022-12-07T00:58:55;12.35;;;9.10;;
48215;SDS011;34005;48.844;10.098;2022-12-07T01:01:23;11.43;;;8.70;;
48215;SDS011;34005;48.844;10.098;2022-12-07T01:03:52;10.00;;;8.48;;
48215;SDS011;34005;48.844;10.098;2022-12-07T01:06:20;10.80;;;8.57;;
48215;SDS011;34005;48.844;10.098;2022-12-07T01:08:50;9.55;;;7.80;;
48215;SDS011;34005;48.844;10.098;2022-12-07T01:11:19;10.00;;;8.18;;
48215;SDS011;34005;48.844;10.098;2022-12-07T01:13:49;10.55;;;8.75;;
48215;SDS011;34005;48.844;10.098;2022-12-07T01:16:17;13.13;;;9.05;;
48215;SDS011;34005;48.844;10.098;2022-12-07T01:18:47;10.02;;;8.85;;
48215;SDS011;34005;48.844;10.098;2022-12-07T01:21:16;10.57;;;8.93;;
48215;SDS011;34005;48.844;10.098;2022-12-07T01:23:46;9.45;;;7.30;;
48215;SDS011;34005;48.844;10.098;2022-12-07T01:26:16;9.75;;;8.05;;
48215;SDS011;34005;48.844;10.098;2022-12-07T01:28:46;9.63;;;8.63;;
48215;SDS011;34005;48.844;10.098;2022-12-07T01:31:15;10.02;;;8.80;;
48215;SDS011;34005;48.844;10.098;2022-12-07T01:33:46;9.35;;;7.72;;
48215;SDS011;34005;48.844;10.098;2022-12-07T01:36:15;9.07;;;7.72;;
48215;SDS011;34005;48.844;10.098;2022-12-07T01:38:44;10.13;;;8.73;;
48215;SDS011;34005;48.844;10.098;2022-12-07T01:41:12;10.13;;;8.32;;
48215;SDS011;34005;48.844;10.098;2022-12-07T01:46:48;9.70;;;8.70;;
48215;SDS011;34005;48.844;10.098;2022-12-07T01:49:18;10.18;;;8.20;;
48215;SDS011;34005;48.844;10.098;2022-12-07T01:51:52;10.25;;;8.05;;
48215;SDS011;34005;48.844;10.098;2022-12-07T01:54:25;12.00;;;9.15;;
48215;SDS011;34005;48.844;10.098;2022-12-07T01:56:53;8.40;;;7.43;;
48215;SDS011;34005;48.844;10.098;2022-12-07T01:59:24;9.95;;;8.52;;
48215;SDS011;34005;48.844;10.098;2022-12-07T02:01:54;9.68;;;7.88;;
48215;SDS011;34005;48.844;10.098;2022-12-07T02:04:23;9.52;;;7.82;;
48215;SDS011;34005;48.844;10.098;2022-12-07T02:06:51;10.80;;;9.02;;
48215;SDS011;34005;48.844;10.098;2022-12-07T02:09:20;10.07;;;8.00;;
48215;SDS011;34005;48.844;10.098;2022-12-07T02:11:48;8.88;;;7.68;;
48215;SDS011;34005;48.844;10.098;2022-12-07T02:14:16;8.38;;;7.43;;
48215;SDS011;34005;48.844;10.098;2022-12-07T02:16:47;10.45;;;8.70;;
48215;SDS011;34005;48.844;10.098;2022-12-07T02:22:47;10.55;;;8.38;;
48215;SDS011;34005;48.844;10.098;2022-12-07T02:28:05;8.27;;;7.30;;
48215;SDS011;34005;48.844;10.098;2022-12-07T02:30:38;12.73;;;8.45;;
48215;SDS011;34005;48.844;10.098;2022-12-07T02:33:11;9.50;;;8.25;;
48215;SDS011;34005;48.844;10.098;2022-12-07T02:35:44;11.57;;;8.15;;
48215;SDS011;34005;48.844;10.098;2022-12-07T02:38:18;12.48;;;8.80;;
48215;SDS011;34005;48.844;10.098;2022-12-07T02:40:51;10.52;;;8.18;;
48215;SDS011;34005;48.844;10.098;2022-12-07T02:43:23;11.88;;;8.43;;
48215;SDS011;34005;48.844;10.098;2022-12-07T02:45:54;12.73;;;8.18;;
48215;SDS011;34005;48.844;10.098;2022-12-07T02:50:53;11.23;;;8.05;;
48215;SDS011;34005;48.844;10.098;2022-12-07T02:53:28;11.07;;;8.57;;
48215;SDS011;34005;48.844;10.098;2022-12-07T02:55:57;12.40;;;9.95;;
48215;SDS011;34005;48.844;10.098;2022-12-07T02:58:28;12.68;;;8.65;;
48215;SDS011;34005;48.844;10.098;2022-12-07T03:01:05;11.13;;;8.20;;
48215;SDS011;34005;48.844;10.098;2022-12-07T03:03:42;11.25;;;8.98;;
48215;SDS011;34005;48.844;10.098;2022-12-07T03:06:16;10.93;;;8.93;;
48215;SDS011;34005;48.844;10.098;2022-12-07T03:08:51;13.38;;;9.57;;
48215;SDS011;34005;48.844;10.098;2022-12-07T03:11:24;11.63;;;9.65;;
48215;SDS011;34005;48.844;10.098;2022-12-07T03:13:59;12.73;;;10.43;;
48215;SDS011;34005;48.844;10.098;2022-12-07T03:16:35;10.80;;;8.82;;
48215;SDS011;34005;48.844;10.098;2022-12-07T03:19:09;13.48;;;10.23;;
48215;SDS011;34005;48.844;10.098;2022-12-07T03:21:41;12.02;;;8.73;;
48215;SDS011;34005;48.844;10.098;2022-12-07T03:24:12;13.02;;;9.52;;
48215;SDS011;34005;48.844;10.098;2022-12-07T03:26:43;11.93;;;9.13;;
48215;SDS011;34005;48.844;10.098;2022-12-07T03:29:16;11.15;;;8.68;;
48215;SDS011;34005;48.844;10.098;2022-12-07T03:31:48;11.75;;;9.05;;
48215;SDS011;34005;48.844;10.098;2022-12-07T03:34:21;14.05;;;9.15;;
48215;SDS011;34005;48.844;10.098;2022-12-07T03:36:56;12.98;;;9.65;;
48215;SDS011;34005;48.844;10.098;2022-12-07T03:39:28;10.77;;;8.18;;
48215;SDS011;34005;48.844;10.098;2022-12-07T03:42:00;13.55;;;10.15;;
48215;SDS011;34005;48.844;10.098;2022-12-07T03:44:30;12.10;;;9.52;;
48215;SDS011;34005;48.844;10.098;2022-12-07T03:47:01;13.35;;;9.63;;
48215;SDS011;34005;48.844;10.098;2022-12-07T03:49:32;13.00;;;10.52;;
48215;SDS011;34005;48.844;10.098;2022-12-07T03:52:08;13.10;;;10.20;;
48215;SDS011;34005;48.844;10.098;2022-12-07T03:54:44;12.38;;;9.50;;
48215;SDS011;34005;48.844;10.098;2022-12-07T03:57:16;12.80;;;9.98;;
48215;SDS011;34005;48.844;10.098;2022-12-07T03:59:45;14.50;;;10.50;;
48215;SDS011;34005;48.844;10.098;2022-12-07T04:02:15;12.38;;;9.70;;
48215;SDS011;34005;48.844;10.098;2022-12-07T04:04:43;16.58;;;10.65;;
48215;SDS011;34005;48.844;10.098;2022-12-07T04:07:10;14.07;;;10.65;;
48215;SDS011;34005;48.844;10.098;2022-12-07T04:09:39;15.23;;;11.05;;
48215;SDS011;34005;48.844;10.098;2022-12-07T04:12:06;12.57;;;10.55;;
48215;SDS011;34005;48.844;10.098;2022-12-07T04:14:34;13.50;;;9.77;;
48215;SDS011;34005;48.844;10.098;2022-12-07T04:17:02;12.50;;;9.90;;
48215;SDS011;34005;48.844;10.098;2022-12-07T04:19:31;14.70;;;10.65;;
48215;SDS011;34005;48.844;10.098;2022-12-07T04:22:01;13.38;;;10.18;;
48215;SDS011;34005;48.844;10.098;2022-12-07T04:24:29;17.25;;;11.95;;
48215;SDS011;34005;48.844;10.098;2022-12-07T04:26:57;13.77;;;9.95;;
48215;SDS011;34005;48.844;10.098;2022-12-07T04:29:25;15.85;;;11.95;;
48215;SDS011;34005;48.844;10.098;2022-12-07T04:31:53;13.05;;;10.48;;
48215;SDS011;34005;48.844;10.098;2022-12-07T04:34:21;14.10;;;10.00;;
48215;SDS011;34005;48.844;10.098;2022-12-07T04:36:50;14.43;;;11.00;;
48215;SDS011;34005;48.844;10.098;2022-12-07T04:39:18;15.73;;;11.30;;
48215;SDS011;34005;48.844;10.098;2022-12-07T04:41:48;16.95;;;11.60;;
48215;SDS011;34005;48.844;10.098;2022-12-07T04:44:16;15.00;;;10.18;;
48215;SDS011;34005;48.844;10.098;2022-12-07T04:46:43;14.60;;;11.00;;
48215;SDS011;34005;48.844;10.098;2022-12-07T04:49:12;14.35;;;11.25;;
48215;SDS011;34005;48.844;10.098;2022-12-07T04:51:41;15.27;;;10.80;;
48215;SDS011;34005;48.844;10.098;2022-12-07T04:54:12;15.25;;;10.75;;
48215;SDS011;34005;48.844;10.098;2022-12-07T04:56:40;16.20;;;11.23;;
48215;SDS011;34005;48.844;10.098;2022-12-07T04:59:08;14.60;;;10.88;;
48215;SDS011;34005;48.844;10.098;2022-12-07T05:01:37;15.75;;;10.52;;
48215;SDS011;34005;48.844;10.098;2022-12-07T05:04:05;15.70;;;11.15;;
48215;SDS011;34005;48.844;10.098;2022-12-07T05:06:32;14.90;;;10.85;;
48215;SDS011;34005;48.844;10.098;2022-12-07T05:09:00;16.20;;;10.90;;
48215;SDS011;34005;48.844;10.098;2022-12-07T05:11:29;15.07;;;10.88;;
48215;SDS011;34005;48.844;10.098;2022-12-07T05:14:07;13.13;;;9.27;;
48215;SDS011;34005;48.844;10.098;2022-12-07T05:16:37;13.98;;;9.27;;
48215;SDS011;34005;48.844;10.098;2022-12-07T05:19:06;11.80;;;9.40;;
48215;SDS011;34005;48.844;10.098;2022-12-07T05:21:34;10.80;;;8.57;;
48215;SDS011;34005;48.844;10.098;2022-12-07T05:24:02;13.98;;;10.23;;
48215;SDS011;34005;48.844;10.098;2022-12-07T05:26:31;12.75;;;9.52;;
48215;SDS011;34005;48.844;10.098;2022-12-07T05:28:59;13.07;;;9.85;;
48215;SDS011;34005;48.844;10.098;2022-12-07T05:31:27;11.27;;;8.93;;
48215;SDS011;34005;48.844;10.098;2022-12-07T05:33:55;15.02;;;9.57;;
48215;SDS011;34005;48.844;10.098;2022-12-07T05:36:22;15.15;;;10.23;;
48215;SDS011;34005;48.844;10.098;2022-12-07T05:38:50;12.40;;;9.73;;
48215;SDS011;34005;48.844;10.098;2022-12-07T05:41:18;12.52;;;9.82;;
48215;SDS011;34005;48.844;10.098;2022-12-07T05:44:05;10.95;;;8.25;;
48215;SDS011;34005;48.844;10.098;2022-12-07T05:46:33;13.43;;;9.45;;
48215;SDS011;34005;48.844;10.098;2022-12-07T05:49:00;12.77;;;9.35;;
48215;SDS011;34005;48.844;10.098;2022-12-07T05:51:28;14.30;;;9.48;;
48215;SDS011;34005;48.844;10.098;2022-12-07T05:53:56;13.60;;;10.23;;
48215;SDS011;34005;48.844;10.098;2022-12-07T05:56:23;13.68;;;8.93;;
48215;SDS011;34005;48.844;10.098;2022-12-07T05:58:52;16.30;;;10.90;;
48215;SDS011;34005;48.844;10.098;2022-12-07T06:01:39;13.13;;;9.32;;
48215;SDS011;34005;48.844;10.098;2022-12-07T06:04:07;13.52;;;9.85;;
48215;SDS011;34005;48.844;10.098;2022-12-07T06:06:35;16.88;;;10.75;;
48215;SDS011;34005;48.844;10.098;2022-12-07T06:09:03;15.90;;;11.48;;
48215;SDS011;34005;48.844;10.098;2022-12-07T06:11:30;21.65;;;14.00;;
48215;SDS011;34005;48.844;10.098;2022-12-07T06:14:15;13.75;;;9.90;;
48215;SDS011;34005;48.844;10.098;2022-12-07T06:16:44;16.88;;;10.35;;
48215;SDS011;34005;48.844;10.098;2022-12-07T06:19:12;16.02;;;11.18;;
48215;SDS011;34005;48.844;10.098;2022-12-07T06:21:39;15.45;;;11.57;;
48215;SDS011;34005;48.844;10.098;2022-12-07T06:24:07;14.73;;;10.40;;
48215;SDS011;34005;48.844;10.098;2022-12-07T06:26:38;14.50;;;9.88;;
48215;SDS011;34005;48.844;10.098;2022-12-07T06:29:09;17.23;;;11.45;;
48215;SDS011;34005;48.844;10.098;2022-12-07T06:31:37;15.32;;;11.40;;
48215;SDS011;34005;48.844;10.098;2022-12-07T06:34:09;16.50;;;10.82;;
48215;SDS011;34005;48.844;10.098;2022-12-07T06:36:37;16.13;;;11.95;;
48215;SDS011;34005;48.844;10.098;2022-12-07T06:39:05;20.05;;;12.23;;
48215;SDS011;34005;48.844;10.098;2022-12-07T06:41:35;16.88;;;11.57;;
48215;SDS011;34005;48.844;10.098;2022-12-07T06:44:03;16.95;;;12.32;;
48215;SDS011;34005;48.844;10.098;2022-12-07T06:46:31;17.55;;;11.60;;
48215;SDS011;34005;48.844;10.098;2022-12-07T06:49:01;17.50;;;11.50;;
48215;SDS011;34005;48.844;10.098;2022-12-07T06:51:30;16.95;;;11.25;;
48215;SDS011;34005;48.844;10.098;2022-12-07T06:53:58;18.05;;;11.32;;
48215;SDS011;34005;48.844;10.098;2022-12-07T06:56:30;17.58;;;11.52;;
48215;SDS011;34005;48.844;10.098;2022-12-07T06:59:17;16.70;;;11.88;;
48215;SDS011;34005;48.844;10.098;2022-12-07T07:02:09;18.88;;;12.00;;
48215;SDS011;34005;48.844;10.098;2022-12-07T07:04:53;16.38;;;11.15;;
48215;SDS011;34005;48.844;10.098;2022-12-07T07:07:42;15.65;;;11.10;;
48215;SDS011;34005;48.844;10.098;2022-12-07T07:10:37;17.77;;;11.82;;
48215;SDS011;34005;48.844;10.098;2022-12-07T07:13:11;18.67;;;11.52;;
48215;SDS011;34005;48.844;10.098;2022-12-07T07:15:50;17.58;;;12.23;;
48215;SDS011;34005;48.844;10.098;2022-12-07T07:18:21;16.77;;;11.02;;
48215;SDS011;34005;48.844;10.098;2022-12-07T07:20:50;19.25;;;12.27;;
48215;SDS011;34005;48.844;10.098;2022-12-07T07:23:23;18.05;;;12.23;;
48215;SDS011;34005;48.844;10.098;2022-12-07T07:26:03;18.98;;;12.13;;
48215;SDS011;34005;48.844;10.098;2022-12-07T07:28:42;18.25;;;11.82;;
48215;SDS011;34005;48.844;10.098;2022-12-07T07:31:33;17.40;;;10.55;;
48215;SDS011;34005;48.844;10.098;2022-12-07T07:34:06;17.73;;;12.10;;
48215;SDS011;34005;48.844;10.098;2022-12-07T07:36:41;19.27;;;12.15;;
48215;SDS011;34005;48.844;10.098;2022-12-07T07:39:14;18.48;;;12.73;;
48215;SDS011;34005;48.844;10.098;2022-12-07T07:41:44;18.85;;;11.75;;
48215;SDS011;34005;48.844;10.098;2022-12-07T07:44:18;18.67;;;11.57;;
48215;SDS011;34005;48.844;10.098;2022-12-07T07:47:04;15.55;;;10.95;;
48215;SDS011;34005;48.844;10.098;2022-12-07T07:49:54;16.73;;;11.85;;
48215;SDS011;34005;48.844;10.098;2022-12-07T07:52:22;19.70;;;11.73;;
48215;SDS011;34005;48.844;10.098;2022-12-07T07:55:16;17.45;;;11.85;;
48215;SDS011;34005;48.844;10.098;2022-12-07T07:57:49;20.25;;;11.30;;
48215;SDS011;34005;48.844;10.098;2022-12-07T08:00:26;18.75;;;11.85;;
48215;SDS011;34005;48.844;10.098;2022-12-07T08:03:19;17.92;;;10.95;;
48215;SDS011;34005;48.844;10.098;2022-12-07T08:05:56;18.13;;;10.88;;
48215;SDS011;34005;48.844;10.098;2022-12-07T08:08:31;17.02;;;11.25;;
48215;SDS011;34005;48.844;10.098;2022-12-07T08:11:09;17.55;;;11.73;;
48215;SDS011;34005;48.844;10.098;2022-12-07T08:14:08;16.00;;;10.45;;
48215;SDS011;34005;48.844;10.098;2022-12-07T08:16:59;15.85;;;11.25;;
48215;SDS011;34005;48.844;10.098;2022-12-07T08:19:40;17.42;;;11.45;;
48215;SDS011;34005;48.844;10.098;2022-12-07T08:22:12;15.35;;;10.90;;
48215;SDS011;34005;48.844;10.098;2022-12-07T08:24:43;15.68;;;11.18;;
48215;SDS011;34005;48.844;10.098;2022-12-07T08:27:22;15.68;;;10.85;;
48215;SDS011;34005;48.844;10.098;2022-12-07T08:30:00;16.10;;;10.88;;
48215;SDS011;34005;48.844;10.098;2022-12-07T08:32:30;14.75;;;9.68;;
48215;SDS011;34005;48.844;10.098;2022-12-07T08:35:02;14.85;;;11.23;;
48215;SDS011;34005;48.844;10.098;2022-12-07T08:37:35;16.65;;;10.80;;
48215;SDS011;34005;48.844;10.098;2022-12-07T08:40:08;15.02;;;10.23;;
48215;SDS011;34005;48.844;10.098;2022-12-07T08:42:43;12.93;;;8.82;;
48215;SDS011;34005;48.844;10.098;2022-12-07T08:45:24;14.07;;;9.25;;
48215;SDS011;34005;48.844;10.098;2022-12-07T08:48:07;13.35;;;9.90;;
48215;SDS011;34005;48.844;10.098;2022-12-07T08:50:45;11.13;;;8.90;;
48215;SDS011;34005;48.844;10.098;2022-12-07T08:53:17;13.73;;;8.63;;
48215;SDS011;34005;48.844;10.098;2022-12-07T08:55:48;10.00;;;7.50;;
48215;SDS011;34005;48.844;10.098;2022-12-07T08:58:18;14.95;;;9.45;;
48215;SDS011;34005;48.844;10.098;2022-12-07T09:00:52;10.60;;;7.88;;
48215;SDS011;34005;48.844;10.098;2022-12-07T09:03:59;10.05;;;7.07;;
48215;SDS011;34005;48.844;10.098;2022-12-07T09:06:54;8.35;;;6.20;;
48215;SDS011;34005;48.844;10.098;2022-12-07T09:12:38;8.30;;;6.05;;
48215;SDS011;34005;48.844;10.098;2022-12-07T09:15:22;8.75;;;6.03;;
48215;SDS011;34005;48.844;10.098;2022-12-07T09:18:02;8.57;;;6.18;;
48215;SDS011;34005;48.844;10.098;2022-12-07T09:20:46;10.45;;;6.50;;
48215;SDS011;34005;48.844;10.098;2022-12-07T09:23:17;8.73;;;6.35;;
48215;SDS011;34005;48.844;10.098;2022-12-07T09:25:48;7.15;;;5.90;;
48215;SDS011;34005;48.844;10.098;2022-12-07T09:28:24;7.10;;;5.53;;
48215;SDS011;34005;48.844;10.098;2022-12-07T09:31:01;9.38;;;6.00;;
48215;SDS011;34005;48.844;10.098;2022-12-07T09:33:54;8.65;;;5.43;;
48215;SDS011;34005;48.844;10.098;2022-12-07T09:36:24;8.43;;;6.53;;
48215;SDS011;34005;48.844;10.098;2022-12-07T09:38:54;8.60;;;6.00;;
48215;SDS011;34005;48.844;10.098;2022-12-07T09:41:27;9.40;;;5.95;;
48215;SDS011;34005;48.844;10.098;2022-12-07T09:44:00;6.50;;;5.13;;
48215;SDS011;34005;48.844;10.098;2022-12-07T09:46:35;7.90;;;5.38;;
48215;SDS011;34005;48.844;10.098;2022-12-07T09:49:09;7.10;;;5.45;;
48215;SDS011;34005;48.844;10.098;2022-12-07T09:51:42;7.95;;;5.97;;
48215;SDS011;34005;48.844;10.098;2022-12-07T09:54:15;7.60;;;5.63;;
48215;SDS011;34005;48.844;10.098;2022-12-07T09:56:44;7.93;;;5.88;;
48215;SDS011;34005;48.844;10.098;2022-12-07T09:59:16;7.75;;;5.85;;
48215;SDS011;34005;48.844;10.098;2022-12-07T10:02:19;9.18;;;6.35;;
48215;SDS011;34005;48.844;10.098;2022-12-07T10:05:01;9.55;;;5.95;;
48215;SDS011;34005;48.844;10.098;2022-12-07T10:10:12;7.40;;;5.32;;
48215;SDS011;34005;48.844;10.098;2022-12-07T10:12:55;8.40;;;5.40;;
48215;SDS011;34005;48.844;10.098;2022-12-07T10:18:25;10.35;;;5.70;;
48215;SDS011;34005;48.844;10.098;2022-12-07T10:24:02;9.23;;;6.55;;
48215;SDS011;34005;48.844;10.098;2022-12-07T10:26:48;8.90;;;6.28;;
48215;SDS011;34005;48.844;10.098;2022-12-07T10:29:28;8.55;;;5.45;;
48215;SDS011;34005;48.844;10.098;2022-12-07T10:32:23;7.30;;;6.13;;
48215;SDS011;34005;48.844;10.098;2022-12-07T10:35:22;8.15;;;6.45;;
48215;SDS011;34005;48.844;10.098;2022-12-07T10:37:55;10.02;;;6.55;;
48215;SDS011;34005;48.844;10.098;2022-12-07T10:40:30;9.55;;;6.35;;
48215;SDS011;34005;48.844;10.098;2022-12-07T10:43:15;14.05;;;7.05;;
48215;SDS011;34005;48.844;10.098;2022-12-07T10:49:28;8.95;;;7.10;;
48215;SDS011;34005;48.844;10.098;2022-12-07T10:55:33;10.27;;;5.68;;
48215;SDS011;34005;48.844;10.098;2022-12-07T10:58:20;9.73;;;6.55;;
48215;SDS011;34005;48.844;10.098;2022-12-07T11:01:02;8.95;;;6.22;;
48215;SDS011;34005;48.844;10.098;2022-12-07T11:03:47;9.25;;;7.10;;
48215;SDS011;34005;48.844;10.098;2022-12-07T11:06:28;8.10;;;6.50;;
48215;SDS011;34005;48.844;10.098;2022-12-07T11:09:16;9.68;;;7.13;;
48215;SDS011;34005;48.844;10.098;2022-12-07T11:12:41;9.15;;;6.65;;
48215;SDS011;34005;48.844;10.098;2022-12-07T11:15:27;8.68;;;6.47;;
48215;SDS011;34005;48.844;10.098;2022-12-07T11:18:06;8.05;;;6.40;;
48215;SDS011;34005;48.844;10.098;2022-12-07T11:20:49;9.10;;;6.38;;
48215;SDS011;34005;48.844;10.098;2022-12-07T11:23:48;8.25;;;6.18;;
48215;SDS011;34005;48.844;10.098;2022-12-07T11:26:25;10.25;;;7.07;;
48215;SDS011;34005;48.844;10.098;2022-12-07T11:29:21;7.68;;;5.72;;
48215;SDS011;34005;48.844;10.098;2022-12-07T11:32:23;9.73;;;6.85;;
48215;SDS011;34005;48.844;10.098;2022-12-07T11:35:08;11.35;;;7.00;;
48215;SDS011;34005;48.844;10.098;2022-12-07T11:37:51;8.15;;;6.85;;
48215;SDS011;34005;48.844;10.098;2022-12-07T11:40:27;10.05;;;7.00;;
48215;SDS011;34005;48.844;10.098;2022-12-07T11:43:15;10.98;;;7.03;;
48215;SDS011;34005;48.844;10.098;2022-12-07T11:45:52;11.18;;;7.05;;
48215;SDS011;34005;48.844;10.098;2022-12-07T11:48:29;10.82;;;7.82;;
48215;SDS011;34005;48.844;10.098;2022-12-07T11:51:01;11.40;;;7.93;;
48215;SDS011;34005;48.844;10.098;2022-12-07T11:53:35;10.23;;;7.32;;
48215;SDS011;34005;48.844;10.098;2022-12-07T11:56:14;9.73;;;6.47;;
48215;SDS011;34005;48.844;10.098;2022-12-07T11:58:45;9.82;;;6.47;;
48215;SDS011;34005;48.844;10.098;2022-12-07T12:01:25;9.27;;;5.80;;
48215;SDS011;34005;48.844;10.098;2022-12-07T12:04:01;10.02;;;6.45;;
48215;SDS011;34005;48.844;10.098;2022-12-07T12:06:33;9.07;;;6.40;;
48215;SDS011;34005;48.844;10.098;2022-12-07T12:09:02;7.88;;;5.95;;
48215;SDS011;34005;48.844;10.098;2022-12-07T12:11:59;10.73;;;6.07;;
48215;SDS011;34005;48.844;10.098;2022-12-07T12:15:01;9.52;;;6.57;;
48215;SDS011;34005;48.844;10.098;2022-12-07T12:17:50;8.63;;;6.00;;
48215;SDS011;34005;48.844;10.098;2022-12-07T12:20:39;12.05;;;6.70;;
48215;SDS011;34005;48.844;10.098;2022-12-07T12:23:11;9.95;;;6.50;;
48215;SDS011;34005;48.844;10.098;2022-12-07T12:25:42;11.70;;;7.07;;
48215;SDS011;34005;48.844;10.098;2022-12-07T12:28:18;13.35;;;8.82;;
48215;SDS011;34005;48.844;10.098;2022-12-07T12:31:04;13.15;;;8.68;;
48215;SDS011;34005;48.844;10.098;2022-12-07T12:33:38;10.93;;;7.53;;
48215;SDS011;34005;48.844;10.098;2022-12-07T12:36:20;9.45;;;6.63;;
48215;SDS011;34005;48.844;10.098;2022-12-07T12:39:07;10.85;;;6.10;;
48215;SDS011;34005;48.844;10.098;2022-12-07T12:41:55;8.25;;;6.32;;
48215;SDS011;34005;48.844;10.098;2022-12-07T12:47:54;11.77;;;8.68;;
48215;SDS011;34005;48.844;10.098;2022-12-07T12:50:29;10.00;;;7.20;;
48215;SDS011;34005;48.844;10.098;2022-12-07T12:53:02;8.50;;;6.70;;
48215;SDS011;34005;48.844;10.098;2022-12-07T12:55:45;11.13;;;7.28;;
48215;SDS011;34005;48.844;10.098;2022-12-07T12:58:38;9.80;;;6.85;;
48215;SDS011;34005;48.844;10.098;2022-12-07T13:04:00;9.50;;;6.35;;
48215;SDS011;34005;48.844;10.098;2022-12-07T13:06:34;10.57;;;5.68;;
48215;SDS011;34005;48.844;10.098;2022-12-07T13:09:04;7.32;;;5.85;;
48215;SDS011;34005;48.844;10.098;2022-12-07T13:11:49;8.70;;;6.05;;
48215;SDS011;34005;48.844;10.098;2022-12-07T13:14:39;13.00;;;6.82;;
48215;SDS011;34005;48.844;10.098;2022-12-07T13:20:46;7.25;;;5.13;;
48215;SDS011;34005;48.844;10.098;2022-12-07T13:23:20;6.53;;;5.47;;
48215;SDS011;34005;48.844;10.098;2022-12-07T13:26:00;6.30;;;5.07;;
48215;SDS011;34005;48.844;10.098;2022-12-07T13:28:33;7.00;;;5.38;;
48215;SDS011;34005;48.844;10.098;2022-12-07T13:33:41;7.47;;;5.82;;
48215;SDS011;34005;48.844;10.098;2022-12-07T13:36:12;7.38;;;5.15;;
48215;SDS011;34005;48.844;10.098;2022-12-07T13:38:51;8.05;;;5.38;;
48215;SDS011;34005;48.844;10.098;2022-12-07T13:41:21;6.57;;;5.03;;
48215;SDS011;34005;48.844;10.098;2022-12-07T13:43:51;7.65;;;5.22;;
48215;SDS011;34005;48.844;10.098;2022-12-07T13:46:24;8.40;;;5.65;;
48215;SDS011;34005;48.844;10.098;2022-12-07T13:49:04;9.30;;;5.65;;
48215;SDS011;34005;48.844;10.098;2022-12-07T13:51:44;7.57;;;5.20;;
48215;SDS011;34005;48.844;10.098;2022-12-07T13:54:14;8.45;;;5.75;;
48215;SDS011;34005;48.844;10.098;2022-12-07T13:56:43;8.88;;;5.82;;
48215;SDS011;34005;48.844;10.098;2022-12-07T13:59:16;10.45;;;6.03;;
48215;SDS011;34005;48.844;10.098;2022-12-07T14:01:46;7.65;;;5.25;;
48215;SDS011;34005;48.844;10.098;2022-12-07T14:04:19;10.50;;;5.85;;
48215;SDS011;34005;48.844;10.098;2022-12-07T14:07:18;8.95;;;6.10;;
48215;SDS011;34005;48.844;10.098;2022-12-07T14:09:59;7.43;;;5.80;;
48215;SDS011;34005;48.844;10.098;2022-12-07T14:12:28;7.32;;;5.57;;
48215;SDS011;34005;48.844;10.098;2022-12-07T14:14:58;6.38;;;5.07;;
48215;SDS011;34005;48.844;10.098;2022-12-07T14:17:28;7.45;;;6.13;;
48215;SDS011;34005;48.844;10.098;2022-12-07T14:19:56;8.75;;;5.45;;
48215;SDS011;34005;48.844;10.098;2022-12-07T14:22:30;7.85;;;5.55;;
48215;SDS011;34005;48.844;10.098;2022-12-07T14:25:13;9.00;;;6.85;;
48215;SDS011;34005;48.844;10.098;2022-12-07T14:27:48;7.40;;;6.22;;
48215;SDS011;34005;48.844;10.098;2022-12-07T14:30:19;8.57;;;5.97;;
48215;SDS011;34005;48.844;10.098;2022-12-07T14:32:52;7.28;;;5.75;;
48215;SDS011;34005;48.844;10.098;2022-12-07T14:35:21;8.07;;;5.93;;
48215;SDS011;34005;48.844;10.098;2022-12-07T14:37:49;6.68;;;5.07;;
48215;SDS011;34005;48.844;10.098;2022-12-07T14:40:19;7.00;;;5.10;;
48215;SDS011;34005;48.844;10.098;2022-12-07T14:42:49;6.50;;;5.40;;
48215;SDS011;34005;48.844;10.098;2022-12-07T14:45:19;7.80;;;6.00;;
48215;SDS011;34005;48.844;10.098;2022-12-07T14:47:48;9.77;;;5.88;;
48215;SDS011;34005;48.844;10.098;2022-12-07T14:50:37;7.80;;;5.90;;
48215;SDS011;34005;48.844;10.098;2022-12-07T14:53:29;6.82;;;5.40;;
48215;SDS011;34005;48.844;10.098;2022-12-07T14:56:02;7.60;;;5.88;;
48215;SDS011;34005;48.844;10.098;2022-12-07T14:58:31;8.85;;;5.05;;
48215;SDS011;34005;48.844;10.098;2022-12-07T15:00:59;6.13;;;5.13;;
48215;SDS011;34005;48.844;10.098;2022-12-07T15:03:27;7.30;;;5.95;;
48215;SDS011;34005;48.844;10.098;2022-12-07T15:05:55;7.05;;;5.22;;
48215;SDS011;34005;48.844;10.098;2022-12-07T15:08:23;7.78;;;5.18;;
48215;SDS011;34005;48.844;10.098;2022-12-07T15:10:51;7.38;;;5.13;;
48215;SDS011;34005;48.844;10.098;2022-12-07T15:13:20;6.35;;;5.53;;
48215;SDS011;34005;48.844;10.098;2022-12-07T15:16:07;6.57;;;5.50;;
48215;SDS011;34005;48.844;10.098;2022-12-07T15:18:37;8.25;;;6.82;;
48215;SDS011;34005;48.844;10.098;2022-12-07T15:21:14;8.07;;;5.80;;
48215;SDS011;34005;48.844;10.098;2022-12-07T15:23:42;7.93;;;5.75;;
48215;SDS011;34005;48.844;10.098;2022-12-07T15:26:10;7.05;;;6.07;;
48215;SDS011;34005;48.844;10.098;2022-12-07T15:28:39;7.22;;;5.85;;
48215;SDS011;34005;48.844;10.098;2022-12-07T15:31:10;7.45;;;5.85;;
48215;SDS011;34005;48.844;10.098;2022-12-07T15:33:58;7.22;;;5.93;;
48215;SDS011;34005;48.844;10.098;2022-12-07T15:36:27;6.95;;;5.80;;
48215;SDS011;34005;48.844;10.098;2022-12-07T15:38:55;7.55;;;6.03;;
48215;SDS011;34005;48.844;10.098;2022-12-07T15:41:40;11.02;;;6.75;;
48215;SDS011;34005;48.844;10.098;2022-12-07T15:44:09;7.75;;;6.22;;
48215;SDS011;34005;48.844;10.098;2022-12-07T15:46:56;8.45;;;6.68;;
48215;SDS011;34005;48.844;10.098;2022-12-07T15:49:24;14.88;;;8.80;;